Time;durP1;ratioP1;P1;durP2;ratioP2;P2;SDS_P1;SDS_P2;PMS_P1;PMS_P2;Temp;Humidity;BMP_temperature;BMP_pressure;BME280_temperature;BME280_humidity;BME280_pressure;Samples;Min_cycle;Max_cycle;Signal;HPM_P1;HPM_P2
2023/10/31 00:00:45;;;;;;;5.90;5.00;;;;;;;19.12;43.14;95273.47;6031381;28;109247;-66
2023/10/31 00:03:48;;;;;;;6.10;5.50;;;;;;;19.35;42.77;95277.25;6029331;28;110111;-66
2023/10/31 00:06:51;;;;;;;6.67;5.70;;;;;;;19.12;42.97;95273.47;6022342;28;110280;-66
2023/10/31 00:09:54;;;;;;;6.55;5.22;;;;;;;19.10;42.69;95272.19;6016583;28;109916;-65
2023/10/31 00:12:58;;;;;;;7.22;5.20;;;;;;;18.97;43.04;95265.66;6015374;29;109462;-65
2023/10/31 00:16:02;;;;;;;6.10;4.73;;;;;;;18.88;43.40;95270.00;6006675;28;108952;-67
2023/10/31 00:19:05;;;;;;;7.60;4.90;;;;;;;18.86;43.20;95268.72;6030212;28;109104;-66
2023/10/31 00:22:08;;;;;;;6.75;4.80;;;;;;;18.82;43.51;95266.63;6015481;28;109080;-66
2023/10/31 00:25:11;;;;;;;6.60;4.97;;;;;;;18.71;43.60;95259.81;6008480;29;112361;-68
2023/10/31 00:28:15;;;;;;;6.10;4.90;;;;;;;18.83;43.46;95262.13;6014353;28;110317;-68
2023/10/31 00:31:18;;;;;;;7.55;4.82;;;;;;;18.92;43.02;95254.31;6033812;28;109338;-67
2023/10/31 00:34:22;;;;;;;5.88;4.78;;;;;;;18.91;43.07;95266.00;6039128;28;109272;-68
2023/10/31 00:37:25;;;;;;;5.20;4.70;;;;;;;18.74;43.19;95261.13;6017757;28;109797;-67
2023/10/31 00:40:28;;;;;;;5.90;5.00;;;;;;;18.82;43.22;95249.94;6016684;28;111681;-68
2023/10/31 00:43:32;;;;;;;6.78;4.75;;;;;;;19.18;42.63;95246.91;6019750;29;110265;-68
2023/10/31 00:46:36;;;;;;;5.63;4.80;;;;;;;19.17;42.32;95245.34;6019685;28;108857;-67
2023/10/31 00:49:39;;;;;;;6.50;4.40;;;;;;;18.85;42.77;95244.06;6023115;28;109285;-70
2023/10/31 00:52:42;;;;;;;6.20;4.83;;;;;;;19.23;42.40;95241.56;6019169;28;109126;-70
2023/10/31 00:55:45;;;;;;;5.70;4.40;;;;;;;19.53;41.98;95238.59;6019737;28;109385;-70
2023/10/31 00:58:50;;;;;;;6.55;4.68;;;;;;;19.69;41.65;95241.84;6013909;28;109288;-68
2023/10/31 01:01:53;;;;;;;5.13;4.72;;;;;;;19.71;41.40;95240.47;6014268;29;109155;-70
2023/10/31 01:04:56;;;;;;;5.40;4.90;;;;;;;19.66;41.37;95237.09;6020038;28;109593;-70
2023/10/31 01:07:59;;;;;;;6.88;5.18;;;;;;;19.34;41.86;95243.03;6018912;28;109139;-70
2023/10/31 01:11:02;;;;;;;5.72;4.78;;;;;;;19.19;42.05;95235.25;6008591;29;109214;-69
2023/10/31 01:14:07;;;;;;;6.05;4.90;;;;;;;18.91;42.65;95228.88;6027025;28;109430;-70
2023/10/31 01:17:10;;;;;;;5.07;3.90;;;;;;;19.25;42.17;95226.94;6026603;28;109359;-70
2023/10/31 01:20:13;;;;;;;5.40;4.80;;;;;;;19.09;42.09;95221.00;6034180;28;109195;-70
2023/10/31 01:23:16;;;;;;;5.50;4.80;;;;;;;18.84;42.60;95221.28;6021670;28;109293;-69
2023/10/31 01:26:19;;;;;;;6.05;4.38;;;;;;;18.78;42.85;95220.50;6018385;29;109128;-70
2023/10/31 01:29:24;;;;;;;6.90;4.60;;;;;;;18.68;43.00;95223.28;5981659;29;109501;-70
2023/10/31 01:32:27;;;;;;;6.88;5.28;;;;;;;18.89;42.45;95223.88;5978514;29;109157;-70
2023/10/31 01:35:30;;;;;;;5.20;4.20;;;;;;;18.68;42.52;95223.28;5970388;29;110137;-70
2023/10/31 01:38:33;;;;;;;5.07;4.33;;;;;;;18.77;42.80;95218.16;5971565;29;108873;-70
2023/10/31 01:41:37;;;;;;;5.82;4.32;;;;;;;18.93;42.28;95211.63;5973259;29;109526;-70
2023/10/31 01:44:41;;;;;;;6.50;4.73;;;;;;;18.77;42.45;95210.97;5964930;29;109256;-69
2023/10/31 01:47:49;;;;;;;6.10;4.70;;;;;;;18.64;42.75;95224.09;5970887;29;110151;-70
2023/10/31 01:50:52;;;;;;;5.10;4.43;;;;;;;18.53;43.08;95221.50;5972316;29;108797;-70
2023/10/31 01:53:56;;;;;;;6.30;4.70;;;;;;;18.26;43.44;95212.47;5970588;29;109814;-69
2023/10/31 01:57:00;;;;;;;6.07;4.60;;;;;;;18.45;43.12;95216.78;5960326;29;109824;-70
2023/10/31 02:00:09;;;;;;;8.02;4.80;;;;;;;18.70;42.80;95209.75;5971992;29;109091;-68
2023/10/31 02:03:12;;;;;;;4.85;4.35;;;;;;;19.09;41.88;95215.69;5949713;29;109369;-68
2023/10/31 02:06:15;;;;;;;6.57;4.50;;;;;;;19.16;41.77;95212.72;5982559;29;109085;-68
2023/10/31 02:09:18;;;;;;;5.90;5.30;;;;;;;19.04;41.59;95204.34;5961225;29;109295;-68
2023/10/31 02:12:34;;;;;;;6.20;4.40;;;;;;;18.70;42.45;95196.47;5972666;29;109341;-67
2023/10/31 02:15:39;;;;;;;5.47;4.32;;;;;;;18.80;42.28;95193.72;5971013;29;109374;-68
2023/10/31 02:18:42;;;;;;;6.65;4.60;;;;;;;18.63;42.34;95198.66;5963606;29;111776;-66
2023/10/31 02:21:46;;;;;;;6.00;4.30;;;;;;;18.44;42.68;95193.22;5967565;29;111609;-68
2023/10/31 02:24:50;;;;;;;4.22;3.83;;;;;;;18.32;42.60;95196.25;5971711;29;109124;-67
2023/10/31 02:27:53;;;;;;;5.35;4.40;;;;;;;18.20;42.80;95190.53;5993027;28;110285;-67
2023/10/31 02:30:56;;;;;;;5.97;4.27;;;;;;;18.22;42.65;95186.53;6006679;28;109265;-67
2023/10/31 02:33:59;;;;;;;6.25;4.40;;;;;;;17.91;43.75;95191.25;6018189;28;109489;-68
2023/10/31 02:37:05;;;;;;;4.68;3.75;;;;;;;18.15;43.04;95186.06;6017598;28;109208;-67
2023/10/31 02:40:09;;;;;;;6.03;4.20;;;;;;;18.09;43.03;95183.72;6018216;28;109806;-68
2023/10/31 02:43:12;;;;;;;5.20;4.67;;;;;;;18.25;42.63;95187.81;6003320;29;109541;-67
2023/10/31 02:46:16;;;;;;;5.22;4.30;;;;;;;18.13;43.07;95190.03;6016470;28;109608;-67
2023/10/31 02:49:19;;;;;;;5.70;4.50;;;;;;;18.07;43.10;95184.00;6017318;28;109810;-67
2023/10/31 02:52:23;;;;;;;4.97;4.20;;;;;;;18.20;42.74;95175.44;6012111;28;109144;-67
2023/10/31 02:55:26;;;;;;;5.90;4.47;;;;;;;17.80;43.58;95183.63;6015631;28;110819;-68
2023/10/31 02:58:30;;;;;;;6.30;4.43;;;;;;;17.97;43.25;95185.91;6017077;28;108941;-67
2023/10/31 03:01:33;;;;;;;5.80;4.40;;;;;;;17.87;43.49;95195.50;6029421;28;109615;-67
2023/10/31 03:04:36;;;;;;;5.93;4.20;;;;;;;18.08;42.96;95190.06;6006609;28;109279;-68
2023/10/31 03:07:41;;;;;;;6.20;5.43;;;;;;;17.99;43.19;95186.44;6017622;29;110176;-68
2023/10/31 03:10:44;;;;;;;6.22;5.30;;;;;;;17.72;43.95;95181.59;6028780;28;109244;-70
2023/10/31 03:13:47;;;;;;;8.80;6.38;;;;;;;18.03;43.27;95188.25;6015409;28;109330;-70
2023/10/31 03:16:50;;;;;;;7.45;5.72;;;;;;;18.54;42.36;95190.53;6015911;28;109196;-70
2023/10/31 03:19:53;;;;;;;7.10;5.75;;;;;;;18.99;41.37;95191.16;6016619;28;109142;-68
2023/10/31 03:22:58;;;;;;;7.83;6.30;;;;;;;19.23;40.99;95185.84;6015253;28;109314;-69
2023/10/31 03:26:01;;;;;;;8.13;7.07;;;;;;;19.35;40.70;95197.63;6026262;28;109194;-70
2023/10/31 03:29:04;;;;;;;7.88;7.07;;;;;;;19.42;40.78;95184.84;6007047;28;109101;-69
2023/10/31 03:32:08;;;;;;;9.43;7.82;;;;;;;19.49;40.58;95183.69;6015424;28;110546;-70
2023/10/31 03:35:11;;;;;;;9.40;8.43;;;;;;;19.55;40.53;95175.38;6015799;28;109639;-68
2023/10/31 03:38:16;;;;;;;10.60;8.48;;;;;;;19.56;40.40;95171.66;6008351;28;109410;-67
2023/10/31 03:41:19;;;;;;;10.18;8.25;;;;;;;19.56;40.45;95168.22;6033777;28;109362;-69
2023/10/31 03:44:22;;;;;;;8.98;8.07;;;;;;;19.54;40.53;95160.53;6018724;28;108969;-69
2023/10/31 03:47:25;;;;;;;8.98;7.00;;;;;;;19.53;40.95;95155.53;6015711;28;109025;-61
2023/10/31 03:50:28;;;;;;;8.50;7.00;;;;;;;19.51;40.94;95161.13;6004986;28;109468;-61
2023/10/31 03:53:33;;;;;;;9.83;6.80;;;;;;;19.55;41.01;95158.66;6016486;28;109559;-61
2023/10/31 03:56:40;;;;;;;8.27;6.18;;;;;;;19.68;40.89;95156.09;6019724;28;109144;-71
2023/10/31 03:59:43;;;;;;;13.98;12.45;;;;;;;19.86;41.05;95165.13;6017167;28;109481;-68
2023/10/31 04:02:47;;;;;;;64.35;58.40;;;;;;;19.92;41.85;95161.31;6004005;28;109278;-68
2023/10/31 04:05:50;;;;;;;69.45;62.97;;;;;;;19.82;41.64;95153.50;6016339;28;112303;-68
2023/10/31 04:08:54;;;;;;;60.08;54.78;;;;;;;19.77;41.22;95147.47;6016602;29;109044;-68
2023/10/31 04:11:57;;;;;;;59.42;54.10;;;;;;;19.78;41.16;95157.03;6010234;28;109117;-68
2023/10/31 04:15:00;;;;;;;53.75;48.85;;;;;;;19.83;41.00;95162.28;6010101;28;110184;-69
2023/10/31 04:18:04;;;;;;;50.27;45.70;;;;;;;19.85;41.07;95160.13;6014208;28;109311;-68
2023/10/31 04:21:07;;;;;;;49.83;45.53;;;;;;;19.85;41.32;95157.47;6014649;28;109092;-63
2023/10/31 04:24:11;;;;;;;42.63;38.83;;;;;;;19.83;41.55;95157.75;6003618;28;109234;-63
2023/10/31 04:27:15;;;;;;;45.95;41.72;;;;;;;20.00;41.68;95158.03;6015087;28;109729;-65
2023/10/31 04:30:18;;;;;;;45.45;41.40;;;;;;;20.09;42.07;95160.81;6021558;28;109329;-64
2023/10/31 04:33:21;;;;;;;37.20;33.60;;;;;;;20.11;41.55;95142.69;6015250;28;109091;-65
2023/10/31 04:36:24;;;;;;;33.15;29.95;;;;;;;20.09;41.67;95146.72;6002659;28;109540;-64
2023/10/31 04:39:29;;;;;;;31.00;27.90;;;;;;;20.02;41.83;95139.94;6016525;28;110341;-65
2023/10/31 04:42:33;;;;;;;22.97;20.67;;;;;;;19.89;42.10;95143.31;6012795;28;110310;-65
2023/10/31 04:45:36;;;;;;;19.95;17.70;;;;;;;19.93;41.98;95133.69;6011229;28;109589;-63
2023/10/31 04:48:39;;;;;;;21.57;19.47;;;;;;;20.10;42.01;95146.44;6006124;28;109301;-63
2023/10/31 04:51:44;;;;;;;16.88;14.93;;;;;;;20.09;42.06;95144.06;6020103;28;109240;-64
2023/10/31 04:54:48;;;;;;;15.63;13.45;;;;;;;20.04;42.42;95155.56;6015352;29;108867;-63
2023/10/31 04:57:51;;;;;;;19.17;16.60;;;;;;;20.13;42.79;95164.44;6006492;28;109146;-69
2023/10/31 05:00:55;;;;;;;17.65;15.43;;;;;;;20.21;42.92;95174.44;6015695;28;110654;-62
2023/10/31 05:03:58;;;;;;;21.88;13.88;;;;;;;20.14;42.61;95171.34;6015368;29;109099;-61
2023/10/31 05:07:14;;;;;;;18.88;13.13;;;;;;;20.19;43.08;95171.28;6016429;28;109282;-62
2023/10/31 05:10:19;;;;;;;17.10;13.63;;;;;;;20.40;43.16;95168.31;6015039;28;109442;-60
2023/10/31 05:13:22;;;;;;;14.40;13.00;;;;;;;20.55;43.92;95168.06;6015156;29;109394;-62
2023/10/31 05:16:25;;;;;;;14.77;12.23;;;;;;;20.62;43.62;95169.25;6018413;28;109370;-60
2023/10/31 05:19:28;;;;;;;15.35;12.30;;;;;;;20.63;43.21;95164.72;6013032;28;110887;-61
2023/10/31 05:22:31;;;;;;;19.42;10.10;;;;;;;20.57;42.19;95158.72;6001954;28;109307;-60
2023/10/31 05:25:36;;;;;;;13.30;10.60;;;;;;;20.40;42.31;95169.09;6014661;28;110326;-63
2023/10/31 05:28:39;;;;;;;13.20;10.00;;;;;;;20.36;42.33;95159.34;6016484;29;109477;-62
2023/10/31 05:31:43;;;;;;;15.23;10.05;;;;;;;20.29;42.77;95165.03;6001311;28;109466;-62
2023/10/31 05:34:46;;;;;;;13.73;10.27;;;;;;;20.26;42.99;95174.38;5991727;29;110225;-62
2023/10/31 05:37:49;;;;;;;10.40;9.32;;;;;;;20.23;42.78;95171.47;5996513;29;109105;-62
2023/10/31 05:40:54;;;;;;;12.00;9.40;;;;;;;20.22;42.94;95176.00;6004378;28;109219;-60
2023/10/31 05:43:57;;;;;;;11.10;8.90;;;;;;;20.20;42.96;95174.72;6008489;29;109134;-61
2023/10/31 05:47:00;;;;;;;10.20;9.10;;;;;;;20.21;42.77;95178.97;6035539;28;109407;-61
2023/10/31 05:50:03;;;;;;;12.40;9.40;;;;;;;20.19;42.75;95181.91;6041419;28;110692;-61
2023/10/31 05:53:07;;;;;;;10.43;8.63;;;;;;;20.19;43.01;95181.91;6042151;28;110096;-61
2023/10/31 05:56:12;;;;;;;9.90;8.10;;;;;;;20.20;42.85;95175.50;6031268;28;108988;-61
2023/10/31 05:59:16;;;;;;;9.55;8.48;;;;;;;20.20;42.82;95180.81;6041904;28;109154;-61
2023/10/31 06:02:19;;;;;;;9.60;7.77;;;;;;;20.25;42.85;95179.97;6041798;28;109114;-61
2023/10/31 06:05:22;;;;;;;11.38;8.00;;;;;;;20.41;42.71;95185.84;6037010;28;110156;-61
2023/10/31 06:08:27;;;;;;;11.48;8.32;;;;;;;20.51;42.47;95191.78;6036385;28;109838;-61
2023/10/31 06:11:32;;;;;;;10.20;8.00;;;;;;;20.70;41.84;95206.91;6041875;28;110329;-62
2023/10/31 06:14:35;;;;;;;10.55;7.85;;;;;;;21.14;40.99;95203.72;6010467;28;109147;-62
2023/10/31 06:17:39;;;;;;;8.27;7.47;;;;;;;21.41;40.75;95217.03;6024937;28;109453;-61
2023/10/31 06:20:42;;;;;;;9.35;7.55;;;;;;;21.54;40.17;95209.34;6035501;28;109438;-61
2023/10/31 06:23:46;;;;;;;9.17;8.17;;;;;;;21.57;40.41;95209.53;6018752;29;110114;-61
2023/10/31 06:26:50;;;;;;;9.30;7.35;;;;;;;21.53;40.29;95219.19;6017730;28;109104;-60
2023/10/31 06:29:55;;;;;;;7.60;6.70;;;;;;;21.47;40.64;95207.84;6007928;29;109487;-60
2023/10/31 06:33:18;;;;;;;8.20;7.10;;;;;;;21.52;40.64;95202.44;6018221;29;109037;-61
2023/10/31 06:36:21;;;;;;;8.80;7.28;;;;;;;21.61;40.54;95196.41;6026625;28;109091;-62
2023/10/31 06:39:24;;;;;;;8.68;6.70;;;;;;;21.67;40.90;95221.81;6036525;28;109660;-62
2023/10/31 06:42:29;;;;;;;7.15;6.30;;;;;;;21.73;40.80;95218.78;6034999;28;109170;-60
2023/10/31 06:45:32;;;;;;;7.30;6.30;;;;;;;21.80;40.17;95223.69;6040876;28;109386;-61
2023/10/31 06:48:35;;;;;;;7.30;6.10;;;;;;;21.86;40.52;95219.88;6041579;28;110278;-63
2023/10/31 06:51:38;;;;;;;9.45;6.50;;;;;;;21.89;40.74;95218.47;6019731;28;109269;-61
2023/10/31 06:54:41;;;;;;;7.70;6.50;;;;;;;21.96;40.74;95216.19;6017387;29;109314;-60
2023/10/31 06:57:46;;;;;;;7.53;5.77;;;;;;;22.00;39.96;95199.28;6036243;28;109325;-61
2023/10/31 07:00:49;;;;;;;8.15;6.18;;;;;;;22.04;40.18;95197.63;6040708;28;110174;-61
2023/10/31 07:03:52;;;;;;;6.60;5.80;;;;;;;22.08;40.47;95195.91;6029652;28;109299;-61
2023/10/31 07:06:57;;;;;;;7.37;5.70;;;;;;;22.13;40.56;95199.56;6040302;28;109343;-61
2023/10/31 07:10:00;;;;;;;6.47;5.72;;;;;;;22.16;40.11;95186.41;6040862;28;109705;-61
2023/10/31 07:13:05;;;;;;;7.53;5.40;;;;;;;22.21;39.87;95193.50;6040630;28;110248;-61
2023/10/31 07:16:08;;;;;;;6.55;5.85;;;;;;;22.24;40.33;95198.22;6029142;28;109393;-61
2023/10/31 07:19:12;;;;;;;6.40;5.70;;;;;;;22.27;40.02;95194.97;6040477;28;109144;-60
2023/10/31 07:22:15;;;;;;;6.47;5.30;;;;;;;22.29;40.29;95196.22;6026039;28;110909;-61
2023/10/31 07:25:18;;;;;;;5.60;5.10;;;;;;;22.33;39.90;95191.84;6011339;29;109156;-61
2023/10/31 07:28:22;;;;;;;7.13;5.47;;;;;;;22.35;40.17;95184.38;6011787;28;109602;-61
2023/10/31 07:31:25;;;;;;;5.60;5.00;;;;;;;22.37;40.23;95189.41;6017057;28;109141;-61
2023/10/31 07:34:30;;;;;;;5.77;5.17;;;;;;;22.39;40.24;95187.22;6016738;29;109175;-62
2023/10/31 07:37:33;;;;;;;5.00;4.40;;;;;;;22.41;40.33;95185.03;6021870;28;109280;-62
2023/10/31 07:40:39;;;;;;;5.93;5.10;;;;;;;22.43;39.76;95185.50;6039650;28;109064;-63
2023/10/31 07:43:43;;;;;;;5.15;4.65;;;;;;;22.43;39.84;95177.50;6040690;28;109984;-62
2023/10/31 07:46:46;;;;;;;5.40;4.90;;;;;;;22.44;40.27;95172.97;6031699;28;110481;-62
2023/10/31 07:49:50;;;;;;;5.32;4.53;;;;;;;22.44;39.82;95168.41;6006136;29;109087;-61
2023/10/31 07:52:53;;;;;;;5.18;4.68;;;;;;;22.45;40.23;95159.31;6031974;28;109171;-61
2023/10/31 07:55:56;;;;;;;5.60;4.57;;;;;;;22.45;40.01;95153.97;6038072;28;109113;-62
2023/10/31 07:59:00;;;;;;;6.00;4.60;;;;;;;22.47;40.23;95156.34;6012210;29;109902;-60
2023/10/31 08:02:04;;;;;;;5.03;4.53;;;;;;;22.48;40.03;95150.69;6010821;29;108991;-61
2023/10/31 08:05:09;;;;;;;4.95;4.45;;;;;;;22.47;40.23;95143.00;6016212;29;109138;-60
2023/10/31 08:08:12;;;;;;;5.30;4.80;;;;;;;22.46;40.43;95144.09;6016432;28;109172;-60
2023/10/31 08:11:16;;;;;;;4.60;4.20;;;;;;;22.45;40.41;95135.31;6009744;28;110567;-61
2023/10/31 08:14:22;;;;;;;7.07;4.30;;;;;;;22.45;40.34;95132.66;6039568;28;109281;-59
2023/10/31 08:17:29;;;;;;;5.10;4.30;;;;;;;22.45;40.35;95137.97;6039054;28;109041;-60
2023/10/31 08:20:33;;;;;;;4.87;4.20;;;;;;;22.45;40.01;95134.53;6039267;28;109458;-61
2023/10/31 08:23:37;;;;;;;6.20;4.15;;;;;;;22.45;39.98;95135.31;6005738;28;110717;-61
2023/10/31 08:26:41;;;;;;;5.28;4.13;;;;;;;22.43;40.43;95124.19;6021311;28;109135;-61
2023/10/31 08:29:46;;;;;;;5.65;4.25;;;;;;;22.41;39.96;95119.16;6039291;28;109216;-61
2023/10/31 08:32:49;;;;;;;4.60;4.20;;;;;;;22.41;40.43;95105.81;6039167;28;109232;-62
2023/10/31 08:35:52;;;;;;;4.60;4.10;;;;;;;22.40;39.92;95106.13;6029115;28;110097;-61
2023/10/31 08:38:55;;;;;;;5.13;4.38;;;;;;;22.38;40.73;95094.97;6016335;28;109245;-61
2023/10/31 08:41:59;;;;;;;4.30;3.90;;;;;;;22.36;40.36;95089.19;6023052;28;109164;-61
2023/10/31 08:45:04;;;;;;;4.50;3.95;;;;;;;22.33;40.25;95087.09;6030593;28;109196;-62
2023/10/31 08:48:07;;;;;;;4.43;4.03;;;;;;;22.32;40.74;95086.31;6021992;28;109154;-61
2023/10/31 08:51:10;;;;;;;4.10;3.60;;;;;;;22.30;40.75;95082.38;6015318;29;109955;-71
2023/10/31 08:54:13;;;;;;;4.50;4.10;;;;;;;22.23;40.56;95082.03;6019273;29;109160;-72
2023/10/31 08:57:16;;;;;;;4.70;4.20;;;;;;;22.19;40.61;95068.53;6015298;28;109525;-61
2023/10/31 09:00:21;;;;;;;4.45;4.00;;;;;;;22.22;40.69;95062.59;6038815;28;109469;-61
2023/10/31 09:03:24;;;;;;;4.57;4.13;;;;;;;22.24;40.64;95044.41;6042300;28;109137;-63
2023/10/31 09:06:27;;;;;;;5.40;4.30;;;;;;;22.26;40.92;95038.78;6041201;28;109232;-62
2023/10/31 09:09:30;;;;;;;4.40;4.00;;;;;;;22.26;41.05;95042.22;6010070;29;110379;-62
2023/10/31 09:12:33;;;;;;;5.10;4.32;;;;;;;22.26;40.92;95036.09;6029537;28;109279;-63
2023/10/31 09:15:38;;;;;;;4.97;4.35;;;;;;;22.26;40.52;95020.91;6043237;28;110321;-63
2023/10/31 09:18:43;;;;;;;4.45;4.05;;;;;;;22.28;41.01;95020.59;6019276;28;109351;-63
2023/10/31 09:21:46;;;;;;;4.82;4.32;;;;;;;22.30;40.71;95013.06;6017268;28;109817;-63
2023/10/31 09:24:49;;;;;;;4.70;4.30;;;;;;;22.31;40.79;95004.75;6041913;28;109294;-62
2023/10/31 09:27:52;;;;;;;4.20;3.80;;;;;;;22.31;40.87;95010.09;6029942;28;109437;-62
2023/10/31 09:30:59;;;;;;;4.43;3.70;;;;;;;22.32;40.82;95002.88;6009179;29;110166;-62
2023/10/31 09:34:03;;;;;;;4.67;4.17;;;;;;;22.35;40.64;94999.63;6039946;28;109138;-62
2023/10/31 09:37:06;;;;;;;4.50;3.92;;;;;;;22.37;40.64;94981.44;6041740;28;109230;-63
2023/10/31 09:40:11;;;;;;;4.20;3.77;;;;;;;22.37;40.44;94978.78;6042022;28;109263;-63
2023/10/31 09:43:14;;;;;;;4.50;4.10;;;;;;;22.38;40.64;94975.78;6030832;28;109283;-63
2023/10/31 09:46:18;;;;;;;4.50;4.10;;;;;;;22.40;40.43;94975.47;6042352;28;112371;-62
2023/10/31 09:49:22;;;;;;;4.60;4.10;;;;;;;22.42;40.91;94973.28;6018955;28;109358;-62
2023/10/31 09:52:26;;;;;;;4.90;4.40;;;;;;;22.44;40.75;94959.66;6024107;28;109084;-63
2023/10/31 09:55:29;;;;;;;4.75;4.35;;;;;;;22.43;40.54;94945.53;6033966;28;110446;-64
2023/10/31 09:58:32;;;;;;;4.70;4.20;;;;;;;22.44;40.92;94933.75;6041321;28;109279;-62
2023/10/31 10:01:37;;;;;;;5.25;4.75;;;;;;;22.45;40.73;94938.00;6041586;28;109245;-62
2023/10/31 10:04:41;;;;;;;4.90;4.50;;;;;;;22.47;40.63;94929.69;6032403;28;109325;-62
2023/10/31 10:07:44;;;;;;;4.67;4.17;;;;;;;22.46;40.35;94925.44;6032702;28;110207;-63
2023/10/31 10:10:49;;;;;;;5.10;4.60;;;;;;;22.45;40.59;94919.34;6018509;29;110609;-62
2023/10/31 10:13:53;;;;;;;4.70;4.30;;;;;;;22.48;40.87;94915.25;6035019;28;109395;-61
2023/10/31 10:16:58;;;;;;;5.00;4.50;;;;;;;22.48;40.33;94910.72;6031083;28;109234;-61
2023/10/31 10:20:09;;;;;;;4.80;4.40;;;;;;;22.49;40.85;94906.94;6041286;28;109390;-61
2023/10/31 10:23:13;;;;;;;4.93;4.53;;;;;;;22.47;40.64;94889.69;6024047;28;109375;-60
2023/10/31 10:26:16;;;;;;;4.60;4.20;;;;;;;22.47;40.92;94884.34;6017515;29;110105;-60
2023/10/31 10:29:20;;;;;;;4.70;4.30;;;;;;;22.46;41.02;94888.91;6007755;28;109189;-61
2023/10/31 10:32:24;;;;;;;4.75;4.35;;;;;;;22.46;40.83;94885.47;6018279;28;109085;-62
2023/10/31 10:35:28;;;;;;;4.80;4.40;;;;;;;22.43;40.74;94873.53;6018259;29;109342;-62
2023/10/31 10:38:35;;;;;;;4.55;4.15;;;;;;;22.42;40.78;94869.31;6025365;28;110226;-64
2023/10/31 10:41:42;;;;;;;4.43;4.03;;;;;;;22.40;41.10;94868.84;6039767;28;110051;-61
2023/10/31 10:44:47;;;;;;;4.90;4.40;;;;;;;22.38;40.57;94873.69;6041648;28;110471;-61
2023/10/31 10:47:57;;;;;;;4.80;4.40;;;;;;;22.37;41.09;94864.13;6041233;28;109125;-62
2023/10/31 10:51:07;;;;;;;4.68;4.28;;;;;;;22.35;41.08;94850.31;6031828;28;109682;-61
2023/10/31 10:54:16;;;;;;;4.40;4.00;;;;;;;22.33;40.72;94839.16;6017552;29;109069;-61
2023/10/31 10:57:25;;;;;;;4.60;4.20;;;;;;;22.33;40.74;94841.81;6019535;28;109195;-61
2023/10/31 11:00:29;;;;;;;5.00;4.50;;;;;;;22.31;40.69;94830.69;6040821;28;109245;-60
2023/10/31 11:03:35;;;;;;;4.70;4.30;;;;;;;22.30;40.99;94829.13;6030533;28;110679;-60
2023/10/31 11:06:38;;;;;;;4.50;4.10;;;;;;;22.27;41.42;94811.09;6040629;28;109095;-60
2023/10/31 11:09:43;;;;;;;4.45;4.05;;;;;;;22.26;41.31;94804.19;6019744;28;109132;-61
2023/10/31 11:12:47;;;;;;;4.78;4.38;;;;;;;22.26;41.38;94804.19;6007696;28;109764;-61
2023/10/31 11:15:55;;;;;;;4.43;4.03;;;;;;;22.24;40.84;94804.50;6017184;29;110228;-61
2023/10/31 11:18:59;;;;;;;4.47;4.03;;;;;;;22.22;41.49;94808.59;6032144;28;109573;-61
2023/10/31 11:22:03;;;;;;;4.60;4.20;;;;;;;22.20;41.20;94794.78;6032956;28;109918;-64
2023/10/31 11:25:09;;;;;;;4.70;4.30;;;;;;;22.19;41.18;94794.00;6006589;29;110186;-64
2023/10/31 11:28:25;;;;;;;4.70;4.30;;;;;;;22.18;41.29;94783.63;6015974;28;110246;-64
2023/10/31 11:31:29;;;;;;;4.50;4.10;;;;;;;22.16;41.13;94772.50;6017064;29;109220;-64
2023/10/31 11:34:33;;;;;;;4.45;4.05;;;;;;;22.15;40.93;94770.94;6035305;28;110095;-65
2023/10/31 11:37:36;;;;;;;4.50;4.10;;;;;;;22.14;41.19;94764.81;6029948;28;109433;-65
2023/10/31 11:41:00;;;;;;;4.70;4.07;;;;;;;22.11;41.28;94766.25;6040569;28;110270;-65
2023/10/31 11:44:04;;;;;;;4.50;4.10;;;;;;;22.11;41.56;94763.56;6026224;28;110114;-65
2023/10/31 11:47:16;;;;;;;4.30;3.90;;;;;;;22.11;41.22;94754.81;6008579;29;111452;-65
2023/10/31 11:50:21;;;;;;;4.22;3.83;;;;;;;22.07;41.78;94746.66;5993959;29;109101;-65
2023/10/31 11:53:26;;;;;;;4.30;3.90;;;;;;;22.08;41.47;94744.78;6019423;28;109035;-65
2023/10/31 11:56:29;;;;;;;4.50;4.10;;;;;;;22.06;41.34;94742.41;6039820;28;109493;-64
2023/10/31 11:59:37;;;;;;;4.60;4.20;;;;;;;22.05;41.33;94740.06;6028218;28;109279;-65
2023/10/31 12:02:41;;;;;;;4.80;4.40;;;;;;;22.04;41.30;94733.97;6037709;28;110078;-65
2023/10/31 12:05:54;;;;;;;4.30;3.90;;;;;;;22.04;41.78;94731.28;6016531;29;109288;-64
2023/10/31 12:09:01;;;;;;;4.38;3.97;;;;;;;22.04;41.30;94723.31;6011478;29;110055;-67
2023/10/31 12:12:05;;;;;;;4.20;3.80;;;;;;;22.03;41.90;94726.28;6010830;29;109250;-65
2023/10/31 12:15:09;;;;;;;4.47;4.07;;;;;;;22.02;41.54;94714.84;6016721;28;110226;-64
2023/10/31 12:18:12;;;;;;;4.63;4.22;;;;;;;22.02;41.54;94706.84;6016057;29;109003;-65
2023/10/31 12:21:17;;;;;;;3.75;3.45;;;;;;;22.02;41.53;94698.06;6006975;29;109737;-63
2023/10/31 12:24:20;;;;;;;4.47;4.07;;;;;;;22.00;41.68;94700.22;6016141;29;108911;-64
2023/10/31 12:27:23;;;;;;;4.10;3.70;;;;;;;22.00;41.50;94706.34;6015621;28;109304;-64
2023/10/31 12:30:26;;;;;;;4.40;4.00;;;;;;;22.01;41.82;94713.28;6037755;28;109221;-64
2023/10/31 12:33:29;;;;;;;4.50;4.10;;;;;;;22.03;41.36;94707.63;6028577;28;110261;-60
2023/10/31 12:36:34;;;;;;;4.60;4.15;;;;;;;22.09;42.36;94704.47;6038652;28;109252;-61
2023/10/31 12:39:37;;;;;;;4.40;4.00;;;;;;;22.14;42.29;94700.09;6023998;28;112288;-59
2023/10/31 12:42:41;;;;;;;4.72;4.32;;;;;;;22.15;42.26;94691.00;6016026;28;109347;-61
2023/10/31 12:45:44;;;;;;;4.80;4.30;;;;;;;22.08;41.89;94672.81;6006123;29;110110;-60
2023/10/31 12:48:48;;;;;;;4.43;4.03;;;;;;;22.06;42.13;94681.13;6016138;28;109465;-61
2023/10/31 12:52:03;;;;;;;4.60;4.20;;;;;;;22.03;42.16;94673.78;6015820;29;109247;-61
2023/10/31 12:55:13;;;;;;;4.50;4.10;;;;;;;22.02;42.17;94661.56;6005907;29;109140;-60
2023/10/31 12:58:23;;;;;;;4.40;4.00;;;;;;;22.02;42.28;94661.56;6015765;28;110178;-60
2023/10/31 13:01:26;;;;;;;4.05;3.65;;;;;;;22.01;42.30;94664.50;6014954;29;109648;-60
2023/10/31 13:04:31;;;;;;;5.30;4.80;;;;;;;22.00;42.02;94662.94;6015559;28;109786;-62
2023/10/31 13:07:36;;;;;;;4.65;4.25;;;;;;;21.98;42.03;94660.59;6005866;29;109480;-61
2023/10/31 13:10:40;;;;;;;4.07;3.67;;;;;;;21.98;42.03;94660.59;6015444;28;109284;-61
2023/10/31 13:13:43;;;;;;;4.38;3.97;;;;;;;21.96;41.77;94665.44;6015525;28;110256;-60
2023/10/31 13:16:46;;;;;;;4.70;4.20;;;;;;;21.96;42.43;94662.00;6015567;29;109350;-61
2023/10/31 13:19:49;;;;;;;4.33;3.93;;;;;;;21.96;42.12;94659.34;6005855;28;110147;-62
2023/10/31 13:22:54;;;;;;;4.45;4.05;;;;;;;21.95;42.31;94671.88;6015468;29;109179;-62
2023/10/31 13:25:57;;;;;;;4.20;3.80;;;;;;;21.94;41.92;94664.19;5992349;29;110372;-61
2023/10/31 13:29:00;;;;;;;4.32;3.92;;;;;;;21.93;42.29;94650.09;5991132;28;110344;-63
2023/10/31 13:32:04;;;;;;;4.40;4.00;;;;;;;21.93;42.00;94647.44;6013984;29;110348;-60
2023/10/31 13:35:10;;;;;;;4.40;4.00;;;;;;;21.93;42.50;94652.75;6014690;28;108872;-60
2023/10/31 13:38:15;;;;;;;4.50;4.10;;;;;;;21.91;42.08;94654.19;6016632;28;109078;-61
2023/10/31 13:41:18;;;;;;;4.25;3.85;;;;;;;21.92;42.16;94645.88;6028586;28;110187;-61
2023/10/31 13:44:21;;;;;;;4.57;4.18;;;;;;;21.92;41.98;94645.09;6038070;28;109074;-64
2023/10/31 13:47:25;;;;;;;4.40;4.00;;;;;;;21.92;42.41;94647.75;6038041;28;109383;-64
2023/10/31 13:50:28;;;;;;;4.22;3.92;;;;;;;21.92;42.03;94645.88;6022188;28;109154;-64
2023/10/31 13:53:33;;;;;;;4.20;3.80;;;;;;;21.92;41.96;94642.41;6011533;28;109181;-64
2023/10/31 13:56:36;;;;;;;4.10;3.70;;;;;;;21.90;42.23;94637.41;6042088;28;108831;-64
2023/10/31 13:59:41;;;;;;;4.60;4.20;;;;;;;21.91;42.04;94632.88;6037000;28;110394;-65
2023/10/31 14:02:44;;;;;;;4.07;3.70;;;;;;;21.89;42.20;94622.53;6012406;29;109430;-64
2023/10/31 14:05:47;;;;;;;3.90;3.33;;;;;;;21.89;42.46;94617.19;6014115;28;110282;-64
2023/10/31 14:08:53;;;;;;;4.72;4.32;;;;;;;21.89;41.98;94629.72;6018784;28;110358;-64
2023/10/31 14:11:56;;;;;;;4.75;4.28;;;;;;;21.89;42.37;94641.16;6018759;28;109122;-65